Terminal Aerodrome Forecast
Issued by NWS Goodland, KS

Home | Current Version | Previous Version | Text Only | Print | Product List | Glossary On
Versions: 1 2 3 4 5 6 7 8 9 10 11 12
000
FTUS43 KGLD 300520
TAFGLD
TAF
KGLD 300520Z 3006/0106 15012KT P6SM SKC
     FM301600 14014G20KT P6SM SCT200
     FM010200 13010KT P6SM BKN200=

USA.gov is the U.S. government's official web portal to all federal, state and local government web resources and services.